createdAt,value
2023-04-10T00:02:26.556Z,77306.50
2023-04-10T00:04:53.911Z,77314.63
2023-04-10T00:07:21.192Z,77314.63
2023-04-10T00:09:48.200Z,77314.63
2023-04-10T00:12:16.055Z,77310.56
2023-04-10T00:14:43.028Z,77322.72
2023-04-10T00:17:10.949Z,77322.72
2023-04-10T00:19:38.054Z,77330.84
2023-04-10T00:22:05.721Z,77334.91
2023-04-10T00:24:33.276Z,77334.91
2023-04-10T00:27:01.755Z,77334.91
2023-04-10T00:29:28.886Z,77343.00
2023-04-10T00:31:56.280Z,77334.91
2023-04-10T00:34:24.075Z,77334.91
2023-04-10T00:36:51.854Z,77338.94
2023-04-10T00:39:19.365Z,77338.94
2023-04-10T00:41:46.786Z,77336.91
2023-04-10T00:44:13.995Z,77336.91
2023-04-10T00:46:41.726Z,77332.88
2023-04-10T00:49:09.705Z,77334.91
2023-04-10T00:51:37.752Z,77332.88
2023-04-10T00:54:05.007Z,77343.00
2023-04-10T00:56:32.768Z,77347.06
2023-04-10T00:59:00.077Z,77359.22
2023-04-10T01:01:27.577Z,77351.13
2023-04-10T01:03:55.997Z,77367.34
2023-04-10T01:06:32.339Z,77375.44
2023-04-10T01:09:10.765Z,77381.53
2023-04-10T01:12:08.087Z,77389.63
2023-04-10T01:15:02.338Z,77399.78
2023-04-10T01:17:52.760Z,77409.91
2023-04-10T01:20:26.915Z,77416.00
2023-04-10T01:23:09.307Z,77411.94
2023-04-10T01:26:04.703Z,77416.00
2023-04-10T01:28:55.644Z,77424.09
2023-04-10T01:31:34.671Z,77422.06
2023-04-10T01:34:09.794Z,77428.16
2023-04-10T01:36:45.664Z,77428.16
2023-04-10T01:39:14.430Z,77436.28
2023-04-10T01:41:44.043Z,77440.31
2023-04-10T01:44:14.881Z,77440.31
2023-04-10T01:46:45.134Z,77444.38
2023-04-10T01:49:14.041Z,77448.44
2023-04-10T01:51:42.077Z,77446.41
2023-04-10T01:54:12.818Z,77448.44
2023-04-10T01:56:41.500Z,77448.44
2023-04-10T01:59:09.255Z,77460.59
2023-04-10T02:01:36.420Z,77468.72
2023-04-10T02:04:04.155Z,77472.78
2023-04-10T02:06:58.929Z,77464.66
2023-04-10T02:09:37.872Z,77460.59
2023-04-10T02:12:09.330Z,77456.53
2023-04-10T02:14:41.481Z,77466.69
2023-04-10T02:17:10.242Z,77468.72
2023-04-10T02:19:40.344Z,77480.88
2023-04-10T02:22:09.153Z,77482.91
2023-04-10T02:24:36.634Z,77489.00
2023-04-10T02:27:04.789Z,77493.03
2023-04-10T02:29:32.627Z,77501.16
2023-04-10T02:32:04.199Z,77503.19
2023-04-10T02:34:31.782Z,77501.16
2023-04-10T02:36:59.234Z,77493.03
2023-04-10T02:39:30.212Z,77497.09
2023-04-10T02:41:57.130Z,77493.03
2023-04-10T02:44:24.462Z,77489.00
2023-04-10T02:46:51.980Z,77484.94
2023-04-10T02:49:19.604Z,77476.81
2023-04-10T02:51:46.660Z,77476.81
2023-04-10T02:54:14.013Z,77468.72
2023-04-10T02:56:42.744Z,77466.69
2023-04-10T02:59:10.113Z,77460.59
2023-04-10T03:01:39.510Z,77464.66
2023-04-10T03:04:07.679Z,77462.63
2023-04-10T03:06:39.085Z,77460.59
2023-04-10T03:09:07.302Z,77456.53
2023-04-10T03:11:34.689Z,77460.59
2023-04-10T03:14:02.359Z,77462.63
2023-04-10T03:16:29.417Z,77468.72
2023-04-10T03:18:57.321Z,77464.66
2023-04-10T03:21:24.177Z,77468.72
2023-04-10T03:23:51.419Z,77472.78
2023-04-10T03:26:18.397Z,77480.88
2023-04-10T03:28:46.009Z,77472.78
2023-04-10T03:31:13.265Z,77476.81
2023-04-10T03:33:42.717Z,77472.78
2023-04-10T03:36:11.536Z,77468.72
2023-04-10T03:38:38.820Z,77472.78
2023-04-10T03:41:09.145Z,77484.94
2023-04-10T03:43:36.380Z,77489.00
2023-04-10T03:46:04.712Z,77489.00
2023-04-10T03:48:33.464Z,77486.97
2023-04-10T03:51:00.435Z,77484.94
2023-04-10T03:53:28.422Z,77491.03
2023-04-10T03:55:56.645Z,77497.09
2023-04-10T03:58:25.808Z,77493.03
2023-04-10T04:00:54.944Z,77495.06
2023-04-10T04:03:38.396Z,77503.19
2023-04-10T04:06:24.597Z,77501.16
2023-04-10T04:09:15.145Z,77513.31
2023-04-10T04:12:08.250Z,77513.31
2023-04-10T04:14:53.766Z,77513.31
2023-04-10T04:17:37.605Z,77513.31
2023-04-10T04:20:06.616Z,77513.31
2023-04-10T04:23:12.132Z,77509.25
2023-04-10T04:25:56.958Z,77509.25
2023-04-10T04:28:44.407Z,77505.22
2023-04-10T04:31:22.286Z,77495.06
2023-04-10T04:34:12.114Z,77486.97
2023-04-10T04:37:08.486Z,77478.84
2023-04-10T04:39:56.089Z,77476.81
2023-04-10T04:42:23.505Z,77476.81
2023-04-10T04:45:22.769Z,77460.59
2023-04-10T04:48:19.661Z,77454.53
2023-04-10T04:51:01.359Z,77452.50
2023-04-10T04:53:43.656Z,77448.44
2023-04-10T04:56:28.956Z,77436.28
2023-04-10T04:59:09.184Z,77432.22
2023-04-10T05:01:54.315Z,77418.03
2023-04-10T05:04:40.825Z,77407.88
2023-04-10T05:07:16.451Z,77395.72
2023-04-10T05:10:13.282Z,77381.53
2023-04-10T05:12:46.038Z,77379.50
2023-04-10T05:15:26.511Z,77375.44
2023-04-10T05:18:24.008Z,77359.22
2023-04-10T05:20:59.703Z,77347.06
2023-04-10T05:23:45.379Z,77338.94
2023-04-10T05:26:23.106Z,77334.91
2023-04-10T05:28:51.009Z,77330.84
2023-04-10T05:31:21.282Z,77314.63
2023-04-10T05:33:57.260Z,77304.47
2023-04-10T05:36:44.089Z,77286.22
2023-04-10T05:39:43.474Z,77278.13
2023-04-10T05:42:33.775Z,77265.97
2023-04-10T05:45:12.626Z,77263.94
2023-04-10T05:48:06.604Z,77249.75
2023-04-10T05:50:56.932Z,77241.63
2023-04-10T05:53:46.130Z,77227.44
2023-04-10T05:56:32.149Z,77223.38
2023-04-10T05:59:19.533Z,77219.31
2023-04-10T06:02:14.727Z,77227.44
2023-04-10T06:04:42.724Z,77225.41
2023-04-10T06:07:10.477Z,77233.53
2023-04-10T06:09:37.927Z,77249.75
2023-04-10T06:12:07.406Z,77253.78
2023-04-10T06:14:36.142Z,77261.91
2023-04-10T06:17:03.370Z,77257.84
2023-04-10T06:19:31.209Z,77257.84
2023-04-10T06:21:58.296Z,77245.69
2023-04-10T06:24:26.006Z,77241.63
2023-04-10T06:26:57.180Z,77237.56
2023-04-10T06:29:25.074Z,77239.59
2023-04-10T06:31:52.680Z,77233.53
2023-04-10T06:34:20.786Z,77233.53
2023-04-10T06:37:01.215Z,77225.41
2023-04-10T06:39:28.418Z,77217.28
2023-04-10T06:41:56.374Z,77209.19
2023-04-10T06:44:41.332Z,77207.16
2023-04-10T06:47:11.005Z,77197.03
2023-04-10T06:49:38.693Z,77197.03
2023-04-10T06:52:06.058Z,77190.94
2023-04-10T06:54:33.255Z,77188.91
2023-04-10T06:57:00.530Z,77180.81
2023-04-10T06:59:27.702Z,77178.78
2023-04-10T07:01:54.817Z,77170.66
2023-04-10T07:04:22.118Z,77164.59
2023-04-10T07:06:49.410Z,77164.59
2023-04-10T07:09:16.918Z,77152.41
2023-04-10T07:11:43.907Z,77136.19
2023-04-10T07:14:11.358Z,77130.13
2023-04-10T07:16:38.361Z,77124.03
2023-04-10T07:19:05.781Z,77119.97
2023-04-10T07:21:33.249Z,77107.81
2023-04-10T07:24:01.974Z,77105.78
2023-04-10T07:26:29.039Z,77089.56
2023-04-10T07:28:56.298Z,77075.38
2023-04-10T07:31:24.203Z,77059.16
2023-04-10T07:33:51.963Z,77055.09
2023-04-10T07:36:19.030Z,77059.16
2023-04-10T07:38:46.355Z,77055.09
2023-04-10T07:41:14.135Z,77055.09
2023-04-10T07:43:41.584Z,77055.09
2023-04-10T07:46:08.877Z,77051.06
2023-04-10T07:48:36.691Z,77042.94
2023-04-10T07:51:03.818Z,77042.94
2023-04-10T07:53:31.267Z,77038.88
2023-04-10T07:55:58.239Z,77034.84
2023-04-10T07:58:25.679Z,77028.75
2023-04-10T08:00:52.885Z,77014.56
2023-04-10T08:03:20.686Z,76998.34
2023-04-10T08:05:47.683Z,76994.28
2023-04-10T08:08:16.555Z,76994.28
2023-04-10T08:10:43.574Z,76986.16
2023-04-10T08:13:10.731Z,76982.13
2023-04-10T08:15:37.658Z,76965.91
2023-04-10T08:18:04.954Z,76957.78
2023-04-10T08:20:36.870Z,76949.69
2023-04-10T08:23:19.295Z,76933.47
2023-04-10T08:25:47.164Z,76913.19
2023-04-10T08:28:14.302Z,76896.97
2023-04-10T08:30:41.314Z,76880.75
2023-04-10T08:33:08.528Z,76880.75
2023-04-10T08:35:35.457Z,76876.69
2023-04-10T08:38:13.702Z,76868.59
2023-04-10T08:40:41.661Z,76868.59
2023-04-10T08:43:08.974Z,76852.38
2023-04-10T08:45:36.156Z,76844.25
2023-04-10T08:48:06.427Z,76836.16
2023-04-10T08:50:36.241Z,76828.03
2023-04-10T08:53:11.539Z,76815.88
2023-04-10T08:55:40.257Z,76799.66
2023-04-10T08:58:08.345Z,76791.56
2023-04-10T09:00:38.568Z,76787.50
2023-04-10T09:03:11.774Z,76779.38
2023-04-10T09:05:39.131Z,76759.13
2023-04-10T09:08:11.113Z,76736.81
2023-04-10T09:10:38.009Z,76720.59
2023-04-10T09:13:05.457Z,76722.63
2023-04-10T09:16:01.336Z,76714.53
2023-04-10T09:18:51.419Z,76708.44
2023-04-10T09:21:20.612Z,76694.25
2023-04-10T09:23:49.216Z,76678.03
2023-04-10T09:26:31.091Z,76669.94
2023-04-10T09:29:04.164Z,76678.03
2023-04-10T09:31:38.401Z,76676.00
2023-04-10T09:34:09.736Z,76657.75
2023-04-10T09:36:37.738Z,76649.66
2023-04-10T09:39:06.103Z,76641.53
2023-04-10T09:41:33.851Z,76633.44
2023-04-10T09:44:11.979Z,76641.53
2023-04-10T09:46:38.871Z,76633.44
2023-04-10T09:49:07.298Z,76623.31
2023-04-10T09:51:36.039Z,76625.31
2023-04-10T09:54:04.065Z,76609.09
2023-04-10T09:56:31.352Z,76601.00
2023-04-10T09:58:59.970Z,76588.84
2023-04-10T10:01:30.751Z,76582.75
2023-04-10T10:04:01.951Z,76568.56
2023-04-10T10:06:32.492Z,76554.38
2023-04-10T10:09:04.647Z,76542.22
2023-04-10T10:11:34.443Z,76552.34
2023-04-10T10:14:06.926Z,76548.31
2023-04-10T10:16:43.494Z,76532.09
2023-04-10T10:19:22.244Z,76507.75
2023-04-10T10:21:51.811Z,76495.59
2023-04-10T10:24:20.710Z,76479.38
2023-04-10T10:26:47.921Z,76491.53
2023-04-10T10:29:17.415Z,76479.38
2023-04-10T10:31:46.171Z,76463.16
2023-04-10T10:34:16.710Z,76463.16
2023-04-10T10:36:43.835Z,76455.06
2023-04-10T10:39:29.681Z,76438.84
2023-04-10T10:42:01.705Z,76434.78
2023-04-10T10:45:23.513Z,76430.72
2023-04-10T10:47:55.033Z,76426.69
2023-04-10T10:50:25.172Z,76418.56
2023-04-10T10:52:54.033Z,76406.41
2023-04-10T10:55:24.548Z,76396.28
2023-04-10T10:57:52.702Z,76390.19
2023-04-10T11:00:21.774Z,76373.97
2023-04-10T11:03:07.455Z,76365.88
2023-04-10T11:05:51.024Z,76353.72
2023-04-10T11:08:18.695Z,76357.75
2023-04-10T11:11:04.118Z,76337.50
2023-04-10T11:13:35.137Z,76331.41
2023-04-10T11:16:03.955Z,76321.28
2023-04-10T11:18:55.861Z,76343.56
2023-04-10T11:21:30.470Z,76327.34
2023-04-10T11:23:57.281Z,76301.00
2023-04-10T11:26:40.333Z,76268.56
2023-04-10T11:29:17.337Z,76256.41
2023-04-10T11:31:46.387Z,76236.16
2023-04-10T11:34:15.640Z,76219.94
2023-04-10T11:36:44.670Z,76219.94
2023-04-10T11:39:18.723Z,76191.56
2023-04-10T11:41:54.579Z,76179.38
2023-04-10T11:44:35.546Z,76163.19
2023-04-10T11:47:02.903Z,76142.91
2023-04-10T11:49:34.758Z,76122.63
2023-04-10T11:52:02.153Z,76114.53
2023-04-10T11:54:29.606Z,76114.53
2023-04-10T11:56:59.913Z,76134.78
2023-04-10T11:59:27.405Z,76163.19
2023-04-10T12:02:06.448Z,76177.38
2023-04-10T12:04:34.327Z,76199.66
2023-04-10T12:07:02.166Z,76215.88
2023-04-10T12:09:29.462Z,76203.72
2023-04-10T12:11:59.714Z,76159.13
2023-04-10T12:14:40.730Z,76114.53
2023-04-10T12:17:12.979Z,76094.25
2023-04-10T12:19:40.491Z,76082.09
2023-04-10T12:22:08.044Z,76098.31
2023-04-10T12:24:49.245Z,76118.59
2023-04-10T12:27:20.228Z,76159.13
2023-04-10T12:29:49.009Z,76175.34
2023-04-10T12:32:16.491Z,76179.38
2023-04-10T12:34:50.618Z,76163.19
2023-04-10T12:37:18.201Z,76142.91
2023-04-10T12:39:45.033Z,76110.47
2023-04-10T12:42:15.191Z,76094.25
2023-04-10T12:45:01.737Z,76065.88
2023-04-10T12:47:29.503Z,76045.63
2023-04-10T12:50:23.459Z,76037.50
2023-04-10T12:53:07.635Z,76053.72
2023-04-10T12:55:34.554Z,76053.72
2023-04-10T12:58:18.092Z,76035.47
2023-04-10T13:00:45.190Z,76023.31
2023-04-10T13:03:12.875Z,76021.31
2023-04-10T13:05:40.105Z,76009.13
2023-04-10T13:08:07.280Z,75980.75
2023-04-10T13:10:34.150Z,75964.56
2023-04-10T13:13:02.507Z,75924.00
2023-04-10T13:15:29.386Z,75915.91
2023-04-10T13:17:56.778Z,75915.91
2023-04-10T13:20:23.704Z,75942.25
2023-04-10T13:22:51.225Z,75954.41
2023-04-10T13:25:18.201Z,75960.50
2023-04-10T13:27:45.342Z,75976.72
2023-04-10T13:30:12.202Z,75992.94
2023-04-10T13:32:39.381Z,75999.00
2023-04-10T13:35:07.126Z,76041.56
2023-04-10T13:37:34.827Z,76065.88
2023-04-10T13:40:01.814Z,76094.25
2023-04-10T13:42:29.024Z,76126.69
2023-04-10T13:44:55.881Z,76195.59
2023-04-10T13:47:23.041Z,76232.09
2023-04-10T13:49:49.993Z,76272.63
2023-04-10T13:52:17.147Z,76317.22
2023-04-10T13:54:43.995Z,76365.88
2023-04-10T13:57:11.174Z,76390.19
2023-04-10T13:59:37.990Z,76410.47
2023-04-10T14:02:05.620Z,76422.63
2023-04-10T14:04:32.549Z,76418.56
2023-04-10T14:07:00.533Z,76434.78
2023-04-10T14:09:28.111Z,76430.72
2023-04-10T14:11:56.046Z,76422.63
2023-04-10T14:14:25.615Z,76420.59
2023-04-10T14:16:52.804Z,76430.72
2023-04-10T14:19:19.921Z,76434.78
2023-04-10T14:21:47.158Z,76451.00
2023-04-10T14:24:14.145Z,76455.06
2023-04-10T14:26:41.295Z,76459.09
2023-04-10T14:29:09.084Z,76479.38
2023-04-10T14:31:44.266Z,76491.53
2023-04-10T14:34:21.836Z,76479.38
2023-04-10T14:36:49.285Z,76467.22
2023-04-10T14:39:16.214Z,76442.91
2023-04-10T14:41:43.395Z,76426.69
2023-04-10T14:44:10.366Z,76414.50
2023-04-10T14:46:37.505Z,76416.53
2023-04-10T14:49:04.551Z,76402.34
2023-04-10T14:51:31.843Z,76390.19
2023-04-10T14:53:58.736Z,76386.13
2023-04-10T14:56:25.880Z,76378.03
2023-04-10T14:58:52.737Z,76371.94
2023-04-10T15:01:19.957Z,76357.75
2023-04-10T15:03:48.515Z,76345.59
2023-04-10T15:06:16.562Z,76331.41
2023-04-10T15:08:43.482Z,76313.16
2023-04-10T15:11:10.798Z,76301.00
2023-04-10T15:13:38.610Z,76288.84
2023-04-10T15:16:08.086Z,76272.63
2023-04-10T15:18:34.939Z,76256.41
2023-04-10T15:21:02.283Z,76254.38
2023-04-10T15:23:29.245Z,76244.25
2023-04-10T15:25:56.596Z,76236.16
2023-04-10T15:28:23.694Z,76240.19
2023-04-10T15:30:50.969Z,76248.31
2023-04-10T15:33:18.045Z,76256.41
2023-04-10T15:35:49.911Z,76256.41
2023-04-10T15:38:17.940Z,76256.41
2023-04-10T15:40:45.988Z,76256.41
2023-04-10T15:43:13.257Z,76252.34
2023-04-10T15:45:40.424Z,76260.47
2023-04-10T15:48:07.405Z,76244.25
2023-04-10T15:50:36.603Z,76207.78
2023-04-10T15:53:03.538Z,76203.72
2023-04-10T15:55:31.146Z,76159.13
2023-04-10T15:58:02.436Z,76090.22
2023-04-10T16:00:31.442Z,76009.13
2023-04-10T16:03:00.104Z,75988.88
2023-04-10T16:05:27.751Z,76013.19
2023-04-10T16:07:55.478Z,76053.72
2023-04-10T16:10:22.824Z,76094.25
2023-04-10T16:12:49.732Z,76122.63
2023-04-10T16:15:17.195Z,76149.00
2023-04-10T16:17:44.399Z,76167.22
2023-04-10T16:20:12.722Z,76175.34
2023-04-10T16:22:40.218Z,76187.50
2023-04-10T16:25:09.079Z,76203.72
2023-04-10T16:27:36.331Z,76209.78
2023-04-10T16:30:06.716Z,76223.97
2023-04-10T16:32:34.344Z,76238.16
2023-04-10T16:35:01.779Z,76248.31
2023-04-10T16:37:29.412Z,76252.34
2023-04-10T16:39:56.994Z,76268.56
2023-04-10T16:42:24.332Z,76280.72
2023-04-10T16:44:52.176Z,76288.84
2023-04-10T16:47:19.128Z,76305.06
2023-04-10T16:49:46.329Z,76317.22
2023-04-10T16:52:13.300Z,76333.44
2023-04-10T16:54:41.394Z,76345.59
2023-04-10T16:57:08.518Z,76353.72
2023-04-10T16:59:35.718Z,76361.81
2023-04-10T17:02:02.996Z,76369.91
2023-04-10T17:04:30.650Z,76386.13
2023-04-10T17:06:57.703Z,76394.25
2023-04-10T17:09:25.208Z,76402.34
2023-04-10T17:11:53.507Z,76414.50
2023-04-10T17:14:20.890Z,76418.56
2023-04-10T17:16:47.769Z,76426.69
2023-04-10T17:19:15.034Z,76426.69
2023-04-10T17:21:42.093Z,76436.81
2023-04-10T17:24:09.369Z,76444.91
2023-04-10T17:26:36.506Z,76455.06
2023-04-10T17:29:03.888Z,76467.22
2023-04-10T17:31:31.412Z,76479.38
2023-04-10T17:33:58.820Z,76491.53
2023-04-10T17:36:26.746Z,76497.63
2023-04-10T17:38:54.347Z,76507.75
2023-04-10T17:41:21.484Z,76515.88
2023-04-10T17:43:49.057Z,76528.03
2023-04-10T17:46:16.507Z,76536.13
2023-04-10T17:48:44.881Z,76544.25
2023-04-10T17:51:12.092Z,76548.31
2023-04-10T17:53:39.636Z,76556.41
2023-04-10T17:56:07.544Z,76560.47
2023-04-10T17:58:34.821Z,76566.53
2023-04-10T18:01:02.186Z,76560.47
2023-04-10T18:03:29.660Z,76570.59
2023-04-10T18:05:56.635Z,76588.84
2023-04-10T18:08:24.120Z,76592.91
2023-04-10T18:10:51.091Z,76598.97
2023-04-10T18:13:18.345Z,76596.94
2023-04-10T18:15:45.220Z,76596.94
2023-04-10T18:18:12.809Z,76596.94
2023-04-10T18:20:40.011Z,76601.00
2023-04-10T18:23:07.200Z,76601.00
2023-04-10T18:25:34.880Z,76601.00
2023-04-10T18:30:32.274Z,76592.91
2023-04-10T18:32:59.528Z,76586.81
2023-04-10T18:35:27.005Z,76592.91
2023-04-10T18:37:54.467Z,76592.91
2023-04-10T18:40:22.334Z,76596.94
2023-04-10T18:42:50.516Z,76613.16
2023-04-10T18:45:17.760Z,76607.09
2023-04-10T18:47:44.978Z,76613.16
2023-04-10T18:50:12.002Z,76613.16
2023-04-10T18:52:39.336Z,76619.25
2023-04-10T18:55:06.833Z,76633.44
2023-04-10T18:57:34.142Z,76649.66
2023-04-10T19:00:01.582Z,76665.88
2023-04-10T19:02:29.521Z,76669.94
2023-04-10T19:04:56.907Z,76676.00
2023-04-10T19:07:24.284Z,76686.13
2023-04-10T19:09:51.345Z,76690.19
2023-04-10T19:12:18.637Z,76698.31
2023-04-10T19:14:45.681Z,76700.34
2023-04-10T19:17:13.187Z,76710.47
2023-04-10T19:19:40.520Z,76714.53
2023-04-10T19:22:07.702Z,76714.53
2023-04-10T19:24:34.760Z,76710.47
2023-04-10T19:27:02.667Z,76710.47
2023-04-10T19:29:31.062Z,76706.41
2023-04-10T19:31:58.217Z,76714.53
2023-04-10T19:34:25.427Z,76722.63
2023-04-10T19:36:53.153Z,76722.63
2023-04-10T19:39:20.115Z,76722.63
2023-04-10T19:41:47.645Z,76734.78
2023-04-10T19:44:14.855Z,76738.84
2023-04-10T19:46:42.136Z,76744.94
2023-04-10T19:49:09.768Z,76751.00
2023-04-10T19:51:37.098Z,76755.06
2023-04-10T19:54:04.245Z,76763.16
2023-04-10T19:56:31.635Z,76771.28
2023-04-10T19:58:59.443Z,76775.34
2023-04-10T20:01:27.086Z,76783.44
2023-04-10T20:03:54.451Z,76795.59
2023-04-10T20:06:22.266Z,76803.72
2023-04-10T20:08:49.404Z,76803.72
2023-04-10T20:11:16.842Z,76803.72
2023-04-10T20:13:43.848Z,76803.72
2023-04-10T20:16:12.367Z,76801.69
2023-04-10T20:18:39.500Z,76811.81
2023-04-10T20:21:07.952Z,76815.88
2023-04-10T20:23:35.392Z,76811.81
2023-04-10T20:26:02.805Z,76815.88
2023-04-10T20:28:29.705Z,76824.00
2023-04-10T20:30:56.956Z,76826.00
2023-04-10T20:33:24.481Z,76824.00
2023-04-10T20:35:53.152Z,76828.03
2023-04-10T20:38:20.203Z,76828.03
2023-04-10T20:40:47.633Z,76824.00
2023-04-10T20:43:15.209Z,76832.09
2023-04-10T20:45:42.337Z,76832.09
2023-04-10T20:48:09.739Z,76828.03
2023-04-10T20:50:41.945Z,76836.16
2023-04-10T20:53:09.426Z,76840.22
2023-04-10T20:55:39.934Z,76842.22
2023-04-10T20:58:07.500Z,76844.25
2023-04-10T21:00:35.460Z,76846.28
2023-04-10T21:03:02.595Z,76848.31
2023-04-10T21:05:29.973Z,76856.44
2023-04-10T21:07:57.262Z,76856.44
2023-04-10T21:10:24.944Z,76866.56
2023-04-10T21:12:51.796Z,76868.59
2023-04-10T21:15:19.518Z,76878.72
2023-04-10T21:17:46.659Z,76876.69
2023-04-10T21:20:13.996Z,76888.88
2023-04-10T21:22:40.970Z,76886.84
2023-04-10T21:25:09.187Z,76892.91
2023-04-10T21:27:36.409Z,76896.97
2023-04-10T21:30:04.009Z,76901.03
2023-04-10T21:32:31.163Z,76903.06
2023-04-10T21:34:58.578Z,76905.09
2023-04-10T21:37:25.485Z,76909.13
2023-04-10T21:39:52.726Z,76913.19
2023-04-10T21:42:19.632Z,76925.34
2023-04-10T21:44:46.974Z,76921.31
2023-04-10T21:47:13.926Z,76923.31
2023-04-10T21:49:41.426Z,76925.34
2023-04-10T21:52:09.660Z,76931.44
2023-04-10T21:54:37.535Z,76929.41
2023-04-10T21:57:04.697Z,76933.47
2023-04-10T21:59:32.273Z,76941.56
2023-04-10T22:01:59.324Z,76941.56
2023-04-10T22:04:27.267Z,76945.63
2023-04-10T22:06:54.501Z,76945.63
2023-04-10T22:09:22.095Z,76945.63
2023-04-10T22:11:49.004Z,76941.56
2023-04-10T22:14:19.361Z,76937.53
2023-04-10T22:16:47.728Z,76945.63
2023-04-10T22:19:15.081Z,76947.66
2023-04-10T22:21:42.106Z,76943.59
2023-04-10T22:24:09.839Z,76949.69
2023-04-10T22:26:37.271Z,76953.75
2023-04-10T22:29:04.463Z,76959.81
2023-04-10T22:31:31.814Z,76961.84
2023-04-10T22:33:58.949Z,76965.91
2023-04-10T22:36:32.635Z,76965.91
2023-04-10T22:38:59.759Z,76961.84
2023-04-10T22:41:28.016Z,76955.75
2023-04-10T22:43:55.433Z,76957.78
2023-04-10T22:46:23.191Z,76957.78
2023-04-10T22:48:50.245Z,76965.91
2023-04-10T22:51:17.800Z,76969.94
2023-04-10T22:53:44.842Z,76974.00
2023-04-10T22:56:12.201Z,76971.97
2023-04-10T22:58:40.688Z,76969.94
2023-04-10T23:01:11.982Z,76969.94
2023-04-10T23:03:38.848Z,76965.91
2023-04-10T23:06:06.414Z,76969.94
2023-04-10T23:08:33.557Z,76969.94
2023-04-10T23:11:01.089Z,76969.94
2023-04-10T23:13:28.105Z,76974.00
2023-04-10T23:15:56.593Z,76982.13
2023-04-10T23:18:23.726Z,76986.16
2023-04-10T23:20:51.199Z,76988.19
2023-04-10T23:23:18.474Z,76986.16
2023-04-10T23:25:45.804Z,76986.16
2023-04-10T23:28:12.929Z,76986.16
2023-04-10T23:30:40.248Z,76988.19
2023-04-10T23:33:07.685Z,76988.19
2023-04-10T23:35:35.125Z,76998.34
2023-04-10T23:38:02.287Z,76990.22
2023-04-10T23:40:29.843Z,76990.22
2023-04-10T23:42:56.877Z,76996.31
2023-04-10T23:45:24.222Z,77000.38
2023-04-10T23:47:51.497Z,76998.34
2023-04-10T23:50:19.176Z,77002.41
2023-04-10T23:52:52.398Z,77004.41
2023-04-10T23:55:19.996Z,77004.41
2023-04-10T23:57:47.074Z,77002.41
